<?xml version="1.0" encoding="UTF-8" standalone="no" ?>
<gpx xmlns="http://www.topografix.com/GPX/1/1" xmlns:xsi="http://www.w3.org/2001/XMLSchema-instance" xsi:schemaLocation="http://www.topografix.com/GPX/1/1 http://www.topografix.com/GPX/1/1/gpx.xsd" version="1.1" creator="VisuGPX - https://www.visugpx.com">
  <metadata>
    <name>Parcours FTT/Cimgo le fénestré - Col du Grand Colombier</name>
  </metadata>
  <trk>
    <name><![CDATA[2021-06-29 16:40:36]]></name>
    <extensions>
      <line xmlns="http://www.topografix.com/GPX/gpx_style/0/2">
        <color>0000FF</color>
        <opacity>0.5</opacity>
        <width>10</width>
      </line>
    </extensions>
    <trkseg>
      <trkpt lat="45.88189" lon="5.76254">
        <ele>1333.46</ele>
        <time>2021-06-29T12:52:00Z</time>
      </trkpt>
      <trkpt lat="45.88189" lon="5.76255">
        <ele>1333.5</ele>
        <time>2021-06-29T12:52:01Z</time>
      </trkpt>
      <trkpt lat="45.88189" lon="5.76257">
        <ele>1332.68</ele>
        <time>2021-06-29T12:52:17Z</time>
      </trkpt>
      <trkpt lat="45.88188" lon="5.76253">
        <ele>1332.6</ele>
        <time>2021-06-29T12:52:31Z</time>
      </trkpt>
      <trkpt lat="45.8818" lon="5.76255">
        <ele>1332.18</ele>
        <time>2021-06-29T12:52:36Z</time>
      </trkpt>
      <trkpt lat="45.88178" lon="5.76258">
        <ele>1332.4</ele>
        <time>2021-06-29T12:52:37Z</time>
      </trkpt>
      <trkpt lat="45.88176" lon="5.76261">
        <ele>1332.55</ele>
        <time>2021-06-29T12:52:38Z</time>
      </trkpt>
      <trkpt lat="45.88174" lon="5.76264">
        <ele>1332.62</ele>
        <time>2021-06-29T12:52:39Z</time>
      </trkpt>
      <trkpt lat="45.88173" lon="5.76267">
        <ele>1332.66</ele>
        <time>2021-06-29T12:52:40Z</time>
      </trkpt>
      <trkpt lat="45.88172" lon="5.7627">
        <ele>1332.68</ele>
        <time>2021-06-29T12:52:41Z</time>
      </trkpt>
      <trkpt lat="45.88171" lon="5.76272">
        <ele>1332.87</ele>
        <time>2021-06-29T12:52:42Z</time>
      </trkpt>
      <trkpt lat="45.8817" lon="5.76273">
        <ele>1333.04</ele>
        <time>2021-06-29T12:52:43Z</time>
      </trkpt>
      <trkpt lat="45.8817" lon="5.76275">
        <ele>1333.15</ele>
        <time>2021-06-29T12:52:44Z</time>
      </trkpt>
      <trkpt lat="45.88169" lon="5.76277">
        <ele>1333.19</ele>
        <time>2021-06-29T12:52:45Z</time>
      </trkpt>
      <trkpt lat="45.88168" lon="5.76279">
        <ele>1333.48</ele>
        <time>2021-06-29T12:52:46Z</time>
      </trkpt>
      <trkpt lat="45.88166" lon="5.76281">
        <ele>1333.94</ele>
        <time>2021-06-29T12:52:47Z</time>
      </trkpt>
      <trkpt lat="45.88165" lon="5.76283">
        <ele>1334.41</ele>
        <time>2021-06-29T12:52:48Z</time>
      </trkpt>
      <trkpt lat="45.88166" lon="5.76282">
        <ele>1336.36</ele>
        <time>2021-06-29T12:52:58Z</time>
      </trkpt>
      <trkpt lat="45.8816" lon="5.76288">
        <ele>1337.05</ele>
        <time>2021-06-29T12:53:29Z</time>
      </trkpt>
      <trkpt lat="45.88161" lon="5.7629">
        <ele>1336.68</ele>
        <time>2021-06-29T12:53:45Z</time>
      </trkpt>
      <trkpt lat="45.88161" lon="5.76287">
        <ele>1336.55</ele>
        <time>2021-06-29T12:54:30Z</time>
      </trkpt>
      <trkpt lat="45.8816" lon="5.76289">
        <ele>1336.85</ele>
        <time>2021-06-29T12:55:05Z</time>
      </trkpt>
      <trkpt lat="45.8816" lon="5.76289">
        <ele>1337.48</ele>
        <time>2021-06-29T12:55:42Z</time>
      </trkpt>
      <trkpt lat="45.8816" lon="5.76289">
        <ele>1337.51</ele>
        <time>2021-06-29T12:56:17Z</time>
      </trkpt>
      <trkpt lat="45.88158" lon="5.7629">
        <ele>1337.54</ele>
        <time>2021-06-29T12:57:05Z</time>
      </trkpt>
      <trkpt lat="45.88158" lon="5.7629">
        <ele>1337.35</ele>
        <time>2021-06-29T12:57:44Z</time>
      </trkpt>
      <trkpt lat="45.88158" lon="5.7629">
        <ele>1337.53</ele>
        <time>2021-06-29T12:58:22Z</time>
      </trkpt>
      <trkpt lat="45.88158" lon="5.7629">
        <ele>1337.3</ele>
        <time>2021-06-29T12:58:57Z</time>
      </trkpt>
      <trkpt lat="45.88157" lon="5.7629">
        <ele>1337.33</ele>
        <time>2021-06-29T12:59:14Z</time>
      </trkpt>
      <trkpt lat="45.88156" lon="5.76291">
        <ele>1337.32</ele>
        <time>2021-06-29T12:59:15Z</time>
      </trkpt>
      <trkpt lat="45.88154" lon="5.76292">
        <ele>1337.32</ele>
        <time>2021-06-29T12:59:16Z</time>
      </trkpt>
      <trkpt lat="45.88152" lon="5.76292">
        <ele>1337.33</ele>
        <time>2021-06-29T12:59:17Z</time>
      </trkpt>
      <trkpt lat="45.88151" lon="5.76292">
        <ele>1337.33</ele>
        <time>2021-06-29T12:59:18Z</time>
      </trkpt>
      <trkpt lat="45.88149" lon="5.76291">
        <ele>1337.32</ele>
        <time>2021-06-29T12:59:19Z</time>
      </trkpt>
      <trkpt lat="45.88147" lon="5.76291">
        <ele>1337.31</ele>
        <time>2021-06-29T12:59:20Z</time>
      </trkpt>
      <trkpt lat="45.88145" lon="5.76291">
        <ele>1337.3</ele>
        <time>2021-06-29T12:59:21Z</time>
      </trkpt>
      <trkpt lat="45.88143" lon="5.76291">
        <ele>1337.3</ele>
        <time>2021-06-29T12:59:22Z</time>
      </trkpt>
      <trkpt lat="45.88113" lon="5.76301">
        <ele>1337.08</ele>
        <time>2021-06-29T12:59:30Z</time>
      </trkpt>
      <trkpt lat="45.88107" lon="5.76303">
        <ele>1337.04</ele>
        <time>2021-06-29T12:59:31Z</time>
      </trkpt>
      <trkpt lat="45.88101" lon="5.76304">
        <ele>1336.91</ele>
        <time>2021-06-29T12:59:32Z</time>
      </trkpt>
      <trkpt lat="45.88089" lon="5.76305">
        <ele>1336.56</ele>
        <time>2021-06-29T12:59:34Z</time>
      </trkpt>
      <trkpt lat="45.88048" lon="5.76318">
        <ele>1333.46</ele>
        <time>2021-06-29T12:59:41Z</time>
      </trkpt>
      <trkpt lat="45.88022" lon="5.7632">
        <ele>1330.64</ele>
        <time>2021-06-29T12:59:46Z</time>
      </trkpt>
      <trkpt lat="45.88014" lon="5.7632">
        <ele>1329.73</ele>
        <time>2021-06-29T12:59:48Z</time>
      </trkpt>
      <trkpt lat="45.87986" lon="5.76332">
        <ele>1326.9</ele>
        <time>2021-06-29T12:59:54Z</time>
      </trkpt>
      <trkpt lat="45.87957" lon="5.76347">
        <ele>1325.04</ele>
        <time>2021-06-29T13:00:00Z</time>
      </trkpt>
      <trkpt lat="45.8795" lon="5.76345">
        <ele>1321.98</ele>
        <time>2021-06-29T13:00:08Z</time>
      </trkpt>
      <trkpt lat="45.87935" lon="5.76345">
        <ele>1321.11</ele>
        <time>2021-06-29T13:00:13Z</time>
      </trkpt>
      <trkpt lat="45.87904" lon="5.76346">
        <ele>1321.53</ele>
        <time>2021-06-29T13:00:32Z</time>
      </trkpt>
      <trkpt lat="45.87876" lon="5.76347">
        <ele>1322.99</ele>
        <time>2021-06-29T13:00:53Z</time>
      </trkpt>
      <trkpt lat="45.8785" lon="5.7635">
        <ele>1323.97</ele>
        <time>2021-06-29T13:01:14Z</time>
      </trkpt>
      <trkpt lat="45.8782" lon="5.76344">
        <ele>1326.06</ele>
        <time>2021-06-29T13:01:41Z</time>
      </trkpt>
      <trkpt lat="45.87794" lon="5.76331">
        <ele>1327.29</ele>
        <time>2021-06-29T13:02:02Z</time>
      </trkpt>
      <trkpt lat="45.87774" lon="5.76324">
        <ele>1327.44</ele>
        <time>2021-06-29T13:02:15Z</time>
      </trkpt>
      <trkpt lat="45.87758" lon="5.76317">
        <ele>1326.97</ele>
        <time>2021-06-29T13:02:24Z</time>
      </trkpt>
      <trkpt lat="45.87755" lon="5.76316">
        <ele>1326.93</ele>
        <time>2021-06-29T13:02:26Z</time>
      </trkpt>
      <trkpt lat="45.87751" lon="5.76313">
        <ele>1326.89</ele>
        <time>2021-06-29T13:02:29Z</time>
      </trkpt>
      <trkpt lat="45.87745" lon="5.76306">
        <ele>1326.86</ele>
        <time>2021-06-29T13:02:43Z</time>
      </trkpt>
      <trkpt lat="45.87744" lon="5.76306">
        <ele>1326.97</ele>
        <time>2021-06-29T13:03:51Z</time>
      </trkpt>
      <trkpt lat="45.87744" lon="5.76308">
        <ele>1326.94</ele>
        <time>2021-06-29T13:03:54Z</time>
      </trkpt>
      <trkpt lat="45.87756" lon="5.76318">
        <ele>1326.99</ele>
        <time>2021-06-29T13:04:03Z</time>
      </trkpt>
      <trkpt lat="45.87786" lon="5.76328">
        <ele>1327.3</ele>
        <time>2021-06-29T13:04:14Z</time>
      </trkpt>
      <trkpt lat="45.87802" lon="5.76335">
        <ele>1327.87</ele>
        <time>2021-06-29T13:04:27Z</time>
      </trkpt>
      <trkpt lat="45.87832" lon="5.76346">
        <ele>1327.21</ele>
        <time>2021-06-29T13:04:50Z</time>
      </trkpt>
      <trkpt lat="45.87833" lon="5.76347">
        <ele>1327.06</ele>
        <time>2021-06-29T13:04:56Z</time>
      </trkpt>
      <trkpt lat="45.87831" lon="5.76347">
        <ele>1327.04</ele>
        <time>2021-06-29T13:04:58Z</time>
      </trkpt>
      <trkpt lat="45.87815" lon="5.76345">
        <ele>1327.36</ele>
        <time>2021-06-29T13:05:10Z</time>
      </trkpt>
      <trkpt lat="45.87796" lon="5.76333">
        <ele>1328.25</ele>
        <time>2021-06-29T13:05:29Z</time>
      </trkpt>
      <trkpt lat="45.87768" lon="5.76326">
        <ele>1327.86</ele>
        <time>2021-06-29T13:05:47Z</time>
      </trkpt>
      <trkpt lat="45.87745" lon="5.76311">
        <ele>1327.64</ele>
        <time>2021-06-29T13:06:08Z</time>
      </trkpt>
      <trkpt lat="45.87743" lon="5.76306">
        <ele>1327.12</ele>
        <time>2021-06-29T13:06:38Z</time>
      </trkpt>
      <trkpt lat="45.87739" lon="5.76301">
        <ele>1327.45</ele>
        <time>2021-06-29T13:06:46Z</time>
      </trkpt>
      <trkpt lat="45.87738" lon="5.76298">
        <ele>1327.45</ele>
        <time>2021-06-29T13:06:47Z</time>
      </trkpt>
      <trkpt lat="45.87707" lon="5.76286">
        <ele>1326.74</ele>
        <time>2021-06-29T13:07:01Z</time>
      </trkpt>
      <trkpt lat="45.87669" lon="5.76308">
        <ele>1325.87</ele>
        <time>2021-06-29T13:07:18Z</time>
      </trkpt>
      <trkpt lat="45.87654" lon="5.76335">
        <ele>1324.65</ele>
        <time>2021-06-29T13:07:30Z</time>
      </trkpt>
      <trkpt lat="45.87629" lon="5.76384">
        <ele>1323.26</ele>
        <time>2021-06-29T13:07:53Z</time>
      </trkpt>
      <trkpt lat="45.87611" lon="5.76419">
        <ele>1324.36</ele>
        <time>2021-06-29T13:08:15Z</time>
      </trkpt>
      <trkpt lat="45.87604" lon="5.76435">
        <ele>1325.91</ele>
        <time>2021-06-29T13:08:41Z</time>
      </trkpt>
      <trkpt lat="45.87594" lon="5.76444">
        <ele>1326.32</ele>
        <time>2021-06-29T13:09:04Z</time>
      </trkpt>
      <trkpt lat="45.87592" lon="5.76445">
        <ele>1326.38</ele>
        <time>2021-06-29T13:09:05Z</time>
      </trkpt>
      <trkpt lat="45.87562" lon="5.76454">
        <ele>1327.15</ele>
        <time>2021-06-29T13:09:29Z</time>
      </trkpt>
      <trkpt lat="45.87545" lon="5.76466">
        <ele>1328.18</ele>
        <time>2021-06-29T13:09:43Z</time>
      </trkpt>
      <trkpt lat="45.87513" lon="5.7648">
        <ele>1328.47</ele>
        <time>2021-06-29T13:09:57Z</time>
      </trkpt>
      <trkpt lat="45.87482" lon="5.76494">
        <ele>1326.73</ele>
        <time>2021-06-29T13:10:12Z</time>
      </trkpt>
      <trkpt lat="45.87482" lon="5.76495">
        <ele>1324.28</ele>
        <time>2021-06-29T13:10:57Z</time>
      </trkpt>
      <trkpt lat="45.8748" lon="5.76497">
        <ele>1324.18</ele>
        <time>2021-06-29T13:11:30Z</time>
      </trkpt>
      <trkpt lat="45.87478" lon="5.76503">
        <ele>1324.28</ele>
        <time>2021-06-29T13:11:33Z</time>
      </trkpt>
      <trkpt lat="45.87475" lon="5.76512">
        <ele>1324.54</ele>
        <time>2021-06-29T13:11:45Z</time>
      </trkpt>
      <trkpt lat="45.87476" lon="5.76506">
        <ele>1324.61</ele>
        <time>2021-06-29T13:11:51Z</time>
      </trkpt>
      <trkpt lat="45.87477" lon="5.76505">
        <ele>1324.65</ele>
        <time>2021-06-29T13:11:52Z</time>
      </trkpt>
      <trkpt lat="45.87479" lon="5.76495">
        <ele>1324.77</ele>
        <time>2021-06-29T13:12:12Z</time>
      </trkpt>
      <trkpt lat="45.8748" lon="5.76491">
        <ele>1325.21</ele>
        <time>2021-06-29T13:13:18Z</time>
      </trkpt>
      <trkpt lat="45.87471" lon="5.76511">
        <ele>1324.76</ele>
        <time>2021-06-29T13:13:34Z</time>
      </trkpt>
      <trkpt lat="45.87442" lon="5.76532">
        <ele>1324.36</ele>
        <time>2021-06-29T13:13:48Z</time>
      </trkpt>
      <trkpt lat="45.87419" lon="5.7654">
        <ele>1325</ele>
        <time>2021-06-29T13:14:03Z</time>
      </trkpt>
      <trkpt lat="45.87392" lon="5.76549">
        <ele>1324.81</ele>
        <time>2021-06-29T13:14:25Z</time>
      </trkpt>
      <trkpt lat="45.87362" lon="5.76563">
        <ele>1326.48</ele>
        <time>2021-06-29T13:14:54Z</time>
      </trkpt>
      <trkpt lat="45.87341" lon="5.76573">
        <ele>1327.53</ele>
        <time>2021-06-29T13:15:12Z</time>
      </trkpt>
      <trkpt lat="45.87316" lon="5.76594">
        <ele>1328.64</ele>
        <time>2021-06-29T13:15:34Z</time>
      </trkpt>
      <trkpt lat="45.87282" lon="5.76616">
        <ele>1328.69</ele>
        <time>2021-06-29T13:15:59Z</time>
      </trkpt>
      <trkpt lat="45.87246" lon="5.76638">
        <ele>1327.69</ele>
        <time>2021-06-29T13:16:24Z</time>
      </trkpt>
      <trkpt lat="45.87222" lon="5.76652">
        <ele>1328.04</ele>
        <time>2021-06-29T13:16:42Z</time>
      </trkpt>
      <trkpt lat="45.87221" lon="5.76654">
        <ele>1328.06</ele>
        <time>2021-06-29T13:16:43Z</time>
      </trkpt>
      <trkpt lat="45.87218" lon="5.76656">
        <ele>1328.07</ele>
        <time>2021-06-29T13:16:46Z</time>
      </trkpt>
      <trkpt lat="45.87217" lon="5.76658">
        <ele>1328.07</ele>
        <time>2021-06-29T13:16:47Z</time>
      </trkpt>
      <trkpt lat="45.87217" lon="5.76659">
        <ele>1328.07</ele>
        <time>2021-06-29T13:16:48Z</time>
      </trkpt>
      <trkpt lat="45.87212" lon="5.76675">
        <ele>1326.64</ele>
        <time>2021-06-29T13:17:03Z</time>
      </trkpt>
      <trkpt lat="45.8721" lon="5.76677">
        <ele>1326.42</ele>
        <time>2021-06-29T13:17:25Z</time>
      </trkpt>
      <trkpt lat="45.87211" lon="5.76677">
        <ele>1326.35</ele>
        <time>2021-06-29T13:17:47Z</time>
      </trkpt>
      <trkpt lat="45.8721" lon="5.76676">
        <ele>1326.43</ele>
        <time>2021-06-29T13:18:13Z</time>
      </trkpt>
      <trkpt lat="45.8721" lon="5.76676">
        <ele>1326.88</ele>
        <time>2021-06-29T13:18:40Z</time>
      </trkpt>
      <trkpt lat="45.8721" lon="5.76675">
        <ele>1326.27</ele>
        <time>2021-06-29T13:19:30Z</time>
      </trkpt>
      <trkpt lat="45.87211" lon="5.76674">
        <ele>1326.47</ele>
        <time>2021-06-29T13:20:17Z</time>
      </trkpt>
      <trkpt lat="45.87211" lon="5.76675">
        <ele>1326.74</ele>
        <time>2021-06-29T13:21:06Z</time>
      </trkpt>
      <trkpt lat="45.87211" lon="5.76675">
        <ele>1326.64</ele>
        <time>2021-06-29T13:22:11Z</time>
      </trkpt>
      <trkpt lat="45.87211" lon="5.76674">
        <ele>1326.61</ele>
        <time>2021-06-29T13:22:58Z</time>
      </trkpt>
      <trkpt lat="45.87212" lon="5.76674">
        <ele>1326.85</ele>
        <time>2021-06-29T13:23:21Z</time>
      </trkpt>
      <trkpt lat="45.87211" lon="5.76677">
        <ele>1326.66</ele>
        <time>2021-06-29T13:23:45Z</time>
      </trkpt>
      <trkpt lat="45.87211" lon="5.7668">
        <ele>1326.6</ele>
        <time>2021-06-29T13:23:46Z</time>
      </trkpt>
      <trkpt lat="45.87211" lon="5.76683">
        <ele>1326.56</ele>
        <time>2021-06-29T13:23:47Z</time>
      </trkpt>
      <trkpt lat="45.8721" lon="5.76686">
        <ele>1326.52</ele>
        <time>2021-06-29T13:23:48Z</time>
      </trkpt>
      <trkpt lat="45.8721" lon="5.7669">
        <ele>1326.33</ele>
        <time>2021-06-29T13:23:49Z</time>
      </trkpt>
      <trkpt lat="45.87211" lon="5.76747">
        <ele>1325.3</ele>
        <time>2021-06-29T13:24:01Z</time>
      </trkpt>
      <trkpt lat="45.87208" lon="5.76802">
        <ele>1323.41</ele>
        <time>2021-06-29T13:24:12Z</time>
      </trkpt>
      <trkpt lat="45.87201" lon="5.76818">
        <ele>1321.11</ele>
        <time>2021-06-29T13:24:19Z</time>
      </trkpt>
      <trkpt lat="45.87194" lon="5.76818">
        <ele>1322.6</ele>
      </trkpt>
      <trkpt lat="45.87194" lon="5.76818">
        <ele>1322.6</ele>
      </trkpt>
      <trkpt lat="45.87202" lon="5.76843">
        <ele>1321.4</ele>
      </trkpt>
      <trkpt lat="45.87202" lon="5.76843">
        <ele>1321.4</ele>
      </trkpt>
      <trkpt lat="45.87208" lon="5.76887">
        <ele>1318.6</ele>
      </trkpt>
      <trkpt lat="45.87208" lon="5.76887">
        <ele>1318.6</ele>
      </trkpt>
      <trkpt lat="45.87207" lon="5.76926">
        <ele>1315.6</ele>
      </trkpt>
      <trkpt lat="45.87207" lon="5.76926">
        <ele>1315.6</ele>
      </trkpt>
      <trkpt lat="45.87196" lon="5.76945">
        <ele>1313.2</ele>
      </trkpt>
      <trkpt lat="45.87196" lon="5.76945">
        <ele>1313.2</ele>
      </trkpt>
      <trkpt lat="45.87153" lon="5.76972">
        <ele>1307.7</ele>
      </trkpt>
      <trkpt lat="45.87153" lon="5.76972">
        <ele>1307.7</ele>
      </trkpt>
      <trkpt lat="45.87125" lon="5.77001">
        <ele>1302.8</ele>
      </trkpt>
      <trkpt lat="45.87125" lon="5.77001">
        <ele>1302.8</ele>
      </trkpt>
      <trkpt lat="45.87121" lon="5.77013">
        <ele>1300</ele>
      </trkpt>
      <trkpt lat="45.87121" lon="5.77013">
        <ele>1300</ele>
      </trkpt>
      <trkpt lat="45.87123" lon="5.77025">
        <ele>1297.9</ele>
      </trkpt>
      <trkpt lat="45.87123" lon="5.77025">
        <ele>1297.9</ele>
      </trkpt>
      <trkpt lat="45.87136" lon="5.77034">
        <ele>1297.5</ele>
      </trkpt>
      <trkpt lat="45.87136" lon="5.77034">
        <ele>1297.5</ele>
      </trkpt>
      <trkpt lat="45.8716" lon="5.7704">
        <ele>1298.6</ele>
      </trkpt>
      <trkpt lat="45.8716" lon="5.7704">
        <ele>1298.6</ele>
      </trkpt>
      <trkpt lat="45.87164" lon="5.77057">
        <ele>1295.8</ele>
      </trkpt>
      <trkpt lat="45.87164" lon="5.77057">
        <ele>1295.8</ele>
      </trkpt>
      <trkpt lat="45.87158" lon="5.77071">
        <ele>1292.6</ele>
      </trkpt>
      <trkpt lat="45.87158" lon="5.77071">
        <ele>1292.6</ele>
      </trkpt>
      <trkpt lat="45.8715" lon="5.77076">
        <ele>1290.8</ele>
      </trkpt>
      <trkpt lat="45.8715" lon="5.77076">
        <ele>1290.8</ele>
      </trkpt>
      <trkpt lat="45.87132" lon="5.77076">
        <ele>1289.1</ele>
      </trkpt>
      <trkpt lat="45.87132" lon="5.77076">
        <ele>1289.1</ele>
      </trkpt>
      <trkpt lat="45.87114" lon="5.77068">
        <ele>1288.9</ele>
      </trkpt>
      <trkpt lat="45.87114" lon="5.77068">
        <ele>1288.9</ele>
      </trkpt>
      <trkpt lat="45.8709" lon="5.77073">
        <ele>1285.6</ele>
      </trkpt>
      <trkpt lat="45.8709" lon="5.77073">
        <ele>1285.6</ele>
      </trkpt>
      <trkpt lat="45.87087" lon="5.77083">
        <ele>1283.4</ele>
      </trkpt>
      <trkpt lat="45.87087" lon="5.77083">
        <ele>1283.4</ele>
      </trkpt>
      <trkpt lat="45.87089" lon="5.77099">
        <ele>1280.1</ele>
      </trkpt>
      <trkpt lat="45.87089" lon="5.77099">
        <ele>1280.1</ele>
      </trkpt>
      <trkpt lat="45.87097" lon="5.77109">
        <ele>1278.8</ele>
      </trkpt>
      <trkpt lat="45.87097" lon="5.77109">
        <ele>1278.8</ele>
      </trkpt>
      <trkpt lat="45.87133" lon="5.77119">
        <ele>1280.6</ele>
      </trkpt>
      <trkpt lat="45.87133" lon="5.77119">
        <ele>1280.6</ele>
      </trkpt>
      <trkpt lat="45.87139" lon="5.77133">
        <ele>1278.5</ele>
      </trkpt>
      <trkpt lat="45.87139" lon="5.77133">
        <ele>1278.5</ele>
      </trkpt>
      <trkpt lat="45.8714" lon="5.77172">
        <ele>1271.1</ele>
      </trkpt>
      <trkpt lat="45.8714" lon="5.77172">
        <ele>1271.1</ele>
      </trkpt>
      <trkpt lat="45.87107" lon="5.77258">
        <ele>1257.2</ele>
      </trkpt>
      <trkpt lat="45.87107" lon="5.77258">
        <ele>1257.2</ele>
      </trkpt>
      <trkpt lat="45.87091" lon="5.77289">
        <ele>1254.4</ele>
      </trkpt>
      <trkpt lat="45.87091" lon="5.77289">
        <ele>1254.4</ele>
      </trkpt>
      <trkpt lat="45.87079" lon="5.77261">
        <ele>1254.1</ele>
      </trkpt>
      <trkpt lat="45.87079" lon="5.77261">
        <ele>1254.1</ele>
      </trkpt>
      <trkpt lat="45.87057" lon="5.77271">
        <ele>1251.1</ele>
      </trkpt>
      <trkpt lat="45.87057" lon="5.77271">
        <ele>1251.1</ele>
      </trkpt>
      <trkpt lat="45.86919" lon="5.7724">
        <ele>1237</ele>
      </trkpt>
      <trkpt lat="45.86919" lon="5.7724">
        <ele>1237</ele>
      </trkpt>
      <trkpt lat="45.86872" lon="5.77257">
        <ele>1232.1</ele>
      </trkpt>
      <trkpt lat="45.86872" lon="5.77257">
        <ele>1232.1</ele>
      </trkpt>
      <trkpt lat="45.86872" lon="5.77292">
        <ele>1231</ele>
      </trkpt>
      <trkpt lat="45.86872" lon="5.77292">
        <ele>1231</ele>
      </trkpt>
      <trkpt lat="45.8686" lon="5.77299">
        <ele>1229.8</ele>
      </trkpt>
      <trkpt lat="45.8686" lon="5.77299">
        <ele>1229.8</ele>
      </trkpt>
      <trkpt lat="45.86817" lon="5.77303">
        <ele>1227.4</ele>
      </trkpt>
      <trkpt lat="45.86817" lon="5.77303">
        <ele>1227.4</ele>
      </trkpt>
      <trkpt lat="45.86698" lon="5.77299">
        <ele>1221.2</ele>
      </trkpt>
      <trkpt lat="45.86698" lon="5.77299">
        <ele>1221.2</ele>
      </trkpt>
      <trkpt lat="45.86654" lon="5.7733">
        <ele>1212</ele>
      </trkpt>
      <trkpt lat="45.86654" lon="5.7733">
        <ele>1212</ele>
      </trkpt>
      <trkpt lat="45.86637" lon="5.77411">
        <ele>1205.5</ele>
      </trkpt>
      <trkpt lat="45.86637" lon="5.77411">
        <ele>1205.5</ele>
      </trkpt>
      <trkpt lat="45.86615" lon="5.77463">
        <ele>1199.5</ele>
      </trkpt>
      <trkpt lat="45.86615" lon="5.77463">
        <ele>1199.5</ele>
      </trkpt>
      <trkpt lat="45.86569" lon="5.77459">
        <ele>1192.4</ele>
      </trkpt>
      <trkpt lat="45.86569" lon="5.77459">
        <ele>1192.4</ele>
      </trkpt>
      <trkpt lat="45.86571" lon="5.77505">
        <ele>1188.8</ele>
      </trkpt>
      <trkpt lat="45.86571" lon="5.77505">
        <ele>1188.8</ele>
      </trkpt>
      <trkpt lat="45.86588" lon="5.77529">
        <ele>1192</ele>
      </trkpt>
      <trkpt lat="45.86588" lon="5.77529">
        <ele>1192</ele>
      </trkpt>
      <trkpt lat="45.86632" lon="5.7754">
        <ele>1194.5</ele>
      </trkpt>
      <trkpt lat="45.86632" lon="5.7754">
        <ele>1194.5</ele>
      </trkpt>
      <trkpt lat="45.86664" lon="5.77637">
        <ele>1185.5</ele>
      </trkpt>
      <trkpt lat="45.86664" lon="5.77637">
        <ele>1185.5</ele>
      </trkpt>
      <trkpt lat="45.86688" lon="5.77665">
        <ele>1183.2</ele>
      </trkpt>
      <trkpt lat="45.86688" lon="5.77665">
        <ele>1183.2</ele>
      </trkpt>
      <trkpt lat="45.86705" lon="5.77703">
        <ele>1178.5</ele>
      </trkpt>
      <trkpt lat="45.86705" lon="5.77703">
        <ele>1178.5</ele>
      </trkpt>
      <trkpt lat="45.86686" lon="5.77731">
        <ele>1174.7</ele>
      </trkpt>
      <trkpt lat="45.86686" lon="5.77731">
        <ele>1174.7</ele>
      </trkpt>
      <trkpt lat="45.86666" lon="5.77735">
        <ele>1174.5</ele>
      </trkpt>
      <trkpt lat="45.86666" lon="5.77735">
        <ele>1174.5</ele>
      </trkpt>
      <trkpt lat="45.86654" lon="5.77759">
        <ele>1168.7</ele>
      </trkpt>
      <trkpt lat="45.86654" lon="5.77759">
        <ele>1168.7</ele>
      </trkpt>
      <trkpt lat="45.86659" lon="5.77801">
        <ele>1160.1</ele>
      </trkpt>
      <trkpt lat="45.86659" lon="5.77801">
        <ele>1160.1</ele>
      </trkpt>
      <trkpt lat="45.86683" lon="5.77822">
        <ele>1156.7</ele>
      </trkpt>
      <trkpt lat="45.86683" lon="5.77822">
        <ele>1156.7</ele>
      </trkpt>
      <trkpt lat="45.86739" lon="5.77843">
        <ele>1152.2</ele>
      </trkpt>
      <trkpt lat="45.86739" lon="5.77843">
        <ele>1152.2</ele>
      </trkpt>
      <trkpt lat="45.86741" lon="5.7785">
        <ele>1150.2</ele>
      </trkpt>
      <trkpt lat="45.86741" lon="5.7785">
        <ele>1150.2</ele>
      </trkpt>
      <trkpt lat="45.86639" lon="5.77909">
        <ele>1130.7</ele>
      </trkpt>
      <trkpt lat="45.86639" lon="5.77909">
        <ele>1130.7</ele>
      </trkpt>
      <trkpt lat="45.8662" lon="5.7793">
        <ele>1121.9</ele>
      </trkpt>
      <trkpt lat="45.8662" lon="5.7793">
        <ele>1121.9</ele>
      </trkpt>
      <trkpt lat="45.86586" lon="5.7792">
        <ele>1119.7</ele>
      </trkpt>
      <trkpt lat="45.86586" lon="5.7792">
        <ele>1119.7</ele>
      </trkpt>
      <trkpt lat="45.86495" lon="5.77804">
        <ele>1103.5</ele>
      </trkpt>
      <trkpt lat="45.86495" lon="5.77804">
        <ele>1103.5</ele>
      </trkpt>
      <trkpt lat="45.86437" lon="5.77597">
        <ele>1096.2</ele>
      </trkpt>
      <trkpt lat="45.86437" lon="5.77597">
        <ele>1096.2</ele>
      </trkpt>
      <trkpt lat="45.86406" lon="5.77479">
        <ele>1089.3</ele>
      </trkpt>
      <trkpt lat="45.86406" lon="5.77479">
        <ele>1089.3</ele>
      </trkpt>
      <trkpt lat="45.86358" lon="5.7739">
        <ele>1067.8</ele>
      </trkpt>
      <trkpt lat="45.86358" lon="5.7739">
        <ele>1067.8</ele>
      </trkpt>
      <trkpt lat="45.86341" lon="5.77287">
        <ele>1054.6</ele>
      </trkpt>
      <trkpt lat="45.86341" lon="5.77287">
        <ele>1054.6</ele>
      </trkpt>
      <trkpt lat="45.86334" lon="5.77272">
        <ele>1051.1</ele>
      </trkpt>
      <trkpt lat="45.86334" lon="5.77272">
        <ele>1051.1</ele>
      </trkpt>
      <trkpt lat="45.86337" lon="5.77193">
        <ele>1062.7</ele>
      </trkpt>
      <trkpt lat="45.86337" lon="5.77193">
        <ele>1062.7</ele>
      </trkpt>
      <trkpt lat="45.86303" lon="5.77124">
        <ele>1013.3</ele>
      </trkpt>
      <trkpt lat="45.86303" lon="5.77124">
        <ele>1013.3</ele>
      </trkpt>
      <trkpt lat="45.86303" lon="5.77075">
        <ele>1011.5</ele>
      </trkpt>
      <trkpt lat="45.86303" lon="5.77075">
        <ele>1011.5</ele>
      </trkpt>
      <trkpt lat="45.86334" lon="5.77035">
        <ele>1035</ele>
      </trkpt>
      <trkpt lat="45.86334" lon="5.77035">
        <ele>1035</ele>
      </trkpt>
      <trkpt lat="45.86337" lon="5.76986">
        <ele>1029</ele>
      </trkpt>
      <trkpt lat="45.86337" lon="5.76986">
        <ele>1029</ele>
      </trkpt>
      <trkpt lat="45.86334" lon="5.76965">
        <ele>1020.3</ele>
      </trkpt>
      <trkpt lat="45.86334" lon="5.76965">
        <ele>1020.3</ele>
      </trkpt>
      <trkpt lat="45.86335" lon="5.76924">
        <ele>1010.5</ele>
      </trkpt>
      <trkpt lat="45.86335" lon="5.76924">
        <ele>1010.5</ele>
      </trkpt>
      <trkpt lat="45.86343" lon="5.76868">
        <ele>1005.8</ele>
      </trkpt>
      <trkpt lat="45.86343" lon="5.76868">
        <ele>1005.8</ele>
      </trkpt>
      <trkpt lat="45.86341" lon="5.76861">
        <ele>1002.3</ele>
      </trkpt>
      <trkpt lat="45.86341" lon="5.76861">
        <ele>1002.3</ele>
      </trkpt>
      <trkpt lat="45.86336" lon="5.76866">
        <ele>999.2</ele>
      </trkpt>
      <trkpt lat="45.86336" lon="5.76866">
        <ele>999.2</ele>
      </trkpt>
      <trkpt lat="45.86323" lon="5.76917">
        <ele>999.5</ele>
      </trkpt>
      <trkpt lat="45.86323" lon="5.76917">
        <ele>999.5</ele>
      </trkpt>
      <trkpt lat="45.86315" lon="5.76911">
        <ele>992.9</ele>
      </trkpt>
      <trkpt lat="45.86315" lon="5.76911">
        <ele>992.9</ele>
      </trkpt>
      <trkpt lat="45.86318" lon="5.76865">
        <ele>987.1</ele>
      </trkpt>
      <trkpt lat="45.86318" lon="5.76865">
        <ele>987.1</ele>
      </trkpt>
      <trkpt lat="45.86312" lon="5.7686">
        <ele>982.2</ele>
      </trkpt>
      <trkpt lat="45.86312" lon="5.7686">
        <ele>982.2</ele>
      </trkpt>
      <trkpt lat="45.86306" lon="5.76874">
        <ele>980.5</ele>
      </trkpt>
      <trkpt lat="45.86306" lon="5.76874">
        <ele>980.5</ele>
      </trkpt>
      <trkpt lat="45.86291" lon="5.76964">
        <ele>983.4</ele>
      </trkpt>
      <trkpt lat="45.86291" lon="5.76964">
        <ele>983.4</ele>
      </trkpt>
      <trkpt lat="45.86288" lon="5.76966">
        <ele>980.8</ele>
      </trkpt>
      <trkpt lat="45.86288" lon="5.76966">
        <ele>980.8</ele>
      </trkpt>
      <trkpt lat="45.86286" lon="5.7696">
        <ele>978.6</ele>
      </trkpt>
      <trkpt lat="45.86286" lon="5.7696">
        <ele>978.6</ele>
      </trkpt>
      <trkpt lat="45.86285" lon="5.76826">
        <ele>956.9</ele>
      </trkpt>
      <trkpt lat="45.86285" lon="5.76826">
        <ele>956.9</ele>
      </trkpt>
      <trkpt lat="45.86282" lon="5.76819">
        <ele>952.6</ele>
      </trkpt>
      <trkpt lat="45.86282" lon="5.76819">
        <ele>952.6</ele>
      </trkpt>
      <trkpt lat="45.86277" lon="5.76848">
        <ele>956.8</ele>
      </trkpt>
      <trkpt lat="45.86277" lon="5.76848">
        <ele>956.8</ele>
      </trkpt>
      <trkpt lat="45.86264" lon="5.76949">
        <ele>960</ele>
      </trkpt>
      <trkpt lat="45.86264" lon="5.76949">
        <ele>960</ele>
      </trkpt>
      <trkpt lat="45.86259" lon="5.76996">
        <ele>957.7</ele>
      </trkpt>
      <trkpt lat="45.86259" lon="5.76996">
        <ele>957.7</ele>
      </trkpt>
      <trkpt lat="45.86253" lon="5.77004">
        <ele>952.8</ele>
      </trkpt>
      <trkpt lat="45.86253" lon="5.77004">
        <ele>952.8</ele>
      </trkpt>
      <trkpt lat="45.86244" lon="5.77004">
        <ele>944.6</ele>
      </trkpt>
      <trkpt lat="45.86244" lon="5.77004">
        <ele>944.6</ele>
      </trkpt>
      <trkpt lat="45.86232" lon="5.77015">
        <ele>936.2</ele>
      </trkpt>
      <trkpt lat="45.86232" lon="5.77015">
        <ele>936.2</ele>
      </trkpt>
      <trkpt lat="45.86228" lon="5.77027">
        <ele>934</ele>
      </trkpt>
      <trkpt lat="45.86228" lon="5.77027">
        <ele>934</ele>
      </trkpt>
      <trkpt lat="45.86226" lon="5.77052">
        <ele>935.7</ele>
      </trkpt>
      <trkpt lat="45.86226" lon="5.77052">
        <ele>935.7</ele>
      </trkpt>
      <trkpt lat="45.86226" lon="5.77078">
        <ele>939</ele>
      </trkpt>
      <trkpt lat="45.86226" lon="5.77078">
        <ele>939</ele>
      </trkpt>
      <trkpt lat="45.86228" lon="5.77115">
        <ele>933.7</ele>
      </trkpt>
      <trkpt lat="45.86228" lon="5.77115">
        <ele>933.7</ele>
      </trkpt>
      <trkpt lat="45.8623" lon="5.77133">
        <ele>930.4</ele>
      </trkpt>
      <trkpt lat="45.8623" lon="5.77133">
        <ele>930.4</ele>
      </trkpt>
      <trkpt lat="45.86223" lon="5.7714">
        <ele>923.7</ele>
      </trkpt>
      <trkpt lat="45.86223" lon="5.7714">
        <ele>923.7</ele>
      </trkpt>
      <trkpt lat="45.86217" lon="5.77133">
        <ele>921.1</ele>
      </trkpt>
      <trkpt lat="45.86217" lon="5.77133">
        <ele>921.1</ele>
      </trkpt>
      <trkpt lat="45.86211" lon="5.77114">
        <ele>920.3</ele>
      </trkpt>
      <trkpt lat="45.86211" lon="5.77114">
        <ele>920.3</ele>
      </trkpt>
      <trkpt lat="45.8621" lon="5.77083">
        <ele>925.3</ele>
      </trkpt>
      <trkpt lat="45.8621" lon="5.77083">
        <ele>925.3</ele>
      </trkpt>
      <trkpt lat="45.86212" lon="5.77049">
        <ele>923.2</ele>
      </trkpt>
      <trkpt lat="45.86212" lon="5.77049">
        <ele>923.2</ele>
      </trkpt>
      <trkpt lat="45.86215" lon="5.77033">
        <ele>923.7</ele>
      </trkpt>
      <trkpt lat="45.86215" lon="5.77033">
        <ele>923.7</ele>
      </trkpt>
      <trkpt lat="45.86212" lon="5.76983">
        <ele>918</ele>
      </trkpt>
      <trkpt lat="45.86212" lon="5.76983">
        <ele>918</ele>
      </trkpt>
      <trkpt lat="45.86207" lon="5.76946">
        <ele>913.8</ele>
      </trkpt>
      <trkpt lat="45.86207" lon="5.76946">
        <ele>913.8</ele>
      </trkpt>
      <trkpt lat="45.86202" lon="5.76898">
        <ele>909.1</ele>
      </trkpt>
      <trkpt lat="45.86202" lon="5.76898">
        <ele>909.1</ele>
      </trkpt>
      <trkpt lat="45.86199" lon="5.76833">
        <ele>905.2</ele>
      </trkpt>
      <trkpt lat="45.86199" lon="5.76833">
        <ele>905.2</ele>
      </trkpt>
      <trkpt lat="45.86199" lon="5.76789">
        <ele>901.5</ele>
      </trkpt>
      <trkpt lat="45.86199" lon="5.76789">
        <ele>901.5</ele>
      </trkpt>
      <trkpt lat="45.86192" lon="5.76779">
        <ele>897.4</ele>
      </trkpt>
      <trkpt lat="45.86192" lon="5.76779">
        <ele>897.4</ele>
      </trkpt>
      <trkpt lat="45.86184" lon="5.76785">
        <ele>893.5</ele>
      </trkpt>
      <trkpt lat="45.86184" lon="5.76785">
        <ele>893.5</ele>
      </trkpt>
      <trkpt lat="45.86177" lon="5.76811">
        <ele>890.8</ele>
      </trkpt>
      <trkpt lat="45.86177" lon="5.76811">
        <ele>890.8</ele>
      </trkpt>
      <trkpt lat="45.86161" lon="5.76887">
        <ele>879.4</ele>
      </trkpt>
      <trkpt lat="45.86161" lon="5.76887">
        <ele>879.4</ele>
      </trkpt>
      <trkpt lat="45.86159" lon="5.76948">
        <ele>876.8</ele>
      </trkpt>
      <trkpt lat="45.86159" lon="5.76948">
        <ele>876.8</ele>
      </trkpt>
      <trkpt lat="45.86156" lon="5.77009">
        <ele>874.7</ele>
      </trkpt>
      <trkpt lat="45.86156" lon="5.77009">
        <ele>874.7</ele>
      </trkpt>
      <trkpt lat="45.86156" lon="5.77056">
        <ele>876.6</ele>
      </trkpt>
      <trkpt lat="45.86156" lon="5.77056">
        <ele>876.6</ele>
      </trkpt>
      <trkpt lat="45.8616" lon="5.77089">
        <ele>879.9</ele>
      </trkpt>
      <trkpt lat="45.8616" lon="5.77089">
        <ele>879.9</ele>
      </trkpt>
      <trkpt lat="45.86159" lon="5.77157">
        <ele>877.8</ele>
      </trkpt>
      <trkpt lat="45.86159" lon="5.77157">
        <ele>877.8</ele>
      </trkpt>
      <trkpt lat="45.86152" lon="5.77163">
        <ele>872.1</ele>
      </trkpt>
      <trkpt lat="45.86152" lon="5.77163">
        <ele>872.1</ele>
      </trkpt>
      <trkpt lat="45.86146" lon="5.7716">
        <ele>867.4</ele>
      </trkpt>
      <trkpt lat="45.86146" lon="5.7716">
        <ele>867.4</ele>
      </trkpt>
      <trkpt lat="45.86137" lon="5.77134">
        <ele>861.7</ele>
      </trkpt>
      <trkpt lat="45.86137" lon="5.77134">
        <ele>861.7</ele>
      </trkpt>
      <trkpt lat="45.86114" lon="5.77051">
        <ele>847.8</ele>
      </trkpt>
      <trkpt lat="45.86114" lon="5.77051">
        <ele>847.8</ele>
      </trkpt>
      <trkpt lat="45.86053" lon="5.76691">
        <ele>815.1</ele>
      </trkpt>
      <trkpt lat="45.86053" lon="5.76691">
        <ele>815.1</ele>
      </trkpt>
      <trkpt lat="45.86046" lon="5.76685">
        <ele>812.3</ele>
      </trkpt>
      <trkpt lat="45.86046" lon="5.76685">
        <ele>812.3</ele>
      </trkpt>
      <trkpt lat="45.86039" lon="5.76693">
        <ele>809.1</ele>
      </trkpt>
      <trkpt lat="45.86039" lon="5.76693">
        <ele>809.1</ele>
      </trkpt>
      <trkpt lat="45.8603" lon="5.76748">
        <ele>804.2</ele>
      </trkpt>
      <trkpt lat="45.8603" lon="5.76748">
        <ele>804.2</ele>
      </trkpt>
      <trkpt lat="45.86028" lon="5.76786">
        <ele>803.9</ele>
      </trkpt>
      <trkpt lat="45.86028" lon="5.76786">
        <ele>803.9</ele>
      </trkpt>
      <trkpt lat="45.86029" lon="5.76822">
        <ele>804.9</ele>
      </trkpt>
      <trkpt lat="45.86029" lon="5.76822">
        <ele>804.9</ele>
      </trkpt>
      <trkpt lat="45.86022" lon="5.7685">
        <ele>800.1</ele>
      </trkpt>
      <trkpt lat="45.86022" lon="5.7685">
        <ele>800.1</ele>
      </trkpt>
      <trkpt lat="45.86018" lon="5.7685">
        <ele>797.7</ele>
      </trkpt>
      <trkpt lat="45.86018" lon="5.7685">
        <ele>797.7</ele>
      </trkpt>
      <trkpt lat="45.86005" lon="5.7678">
        <ele>791.7</ele>
      </trkpt>
      <trkpt lat="45.86005" lon="5.7678">
        <ele>791.7</ele>
      </trkpt>
      <trkpt lat="45.86" lon="5.7676">
        <ele>789</ele>
      </trkpt>
      <trkpt lat="45.86" lon="5.7676">
        <ele>789</ele>
      </trkpt>
      <trkpt lat="45.85988" lon="5.76743">
        <ele>784.3</ele>
      </trkpt>
      <trkpt lat="45.85988" lon="5.76743">
        <ele>784.3</ele>
      </trkpt>
      <trkpt lat="45.85979" lon="5.76723">
        <ele>782.1</ele>
      </trkpt>
      <trkpt lat="45.85979" lon="5.76723">
        <ele>782.1</ele>
      </trkpt>
      <trkpt lat="45.8597" lon="5.76702">
        <ele>780.8</ele>
      </trkpt>
      <trkpt lat="45.8597" lon="5.76702">
        <ele>780.8</ele>
      </trkpt>
      <trkpt lat="45.85943" lon="5.7667">
        <ele>774.8</ele>
      </trkpt>
      <trkpt lat="45.85943" lon="5.7667">
        <ele>774.8</ele>
      </trkpt>
      <trkpt lat="45.8592" lon="5.76651">
        <ele>768.1</ele>
      </trkpt>
      <trkpt lat="45.8592" lon="5.76651">
        <ele>768.1</ele>
      </trkpt>
      <trkpt lat="45.85904" lon="5.76641">
        <ele>764.9</ele>
      </trkpt>
      <trkpt lat="45.85904" lon="5.76641">
        <ele>764.9</ele>
      </trkpt>
      <trkpt lat="45.85888" lon="5.7663">
        <ele>762.6</ele>
      </trkpt>
      <trkpt lat="45.85888" lon="5.7663">
        <ele>762.6</ele>
      </trkpt>
      <trkpt lat="45.8587" lon="5.7663">
        <ele>759.2</ele>
      </trkpt>
      <trkpt lat="45.8587" lon="5.7663">
        <ele>759.2</ele>
      </trkpt>
      <trkpt lat="45.85846" lon="5.7663">
        <ele>754.7</ele>
      </trkpt>
      <trkpt lat="45.85846" lon="5.7663">
        <ele>754.7</ele>
      </trkpt>
      <trkpt lat="45.8584" lon="5.7663">
        <ele>753.6</ele>
      </trkpt>
      <trkpt lat="45.8584" lon="5.7663">
        <ele>753.6</ele>
      </trkpt>
      <trkpt lat="45.85846" lon="5.76641">
        <ele>753.1</ele>
      </trkpt>
      <trkpt lat="45.85846" lon="5.76641">
        <ele>753.1</ele>
      </trkpt>
      <trkpt lat="45.85881" lon="5.76664">
        <ele>757.6</ele>
      </trkpt>
      <trkpt lat="45.85881" lon="5.76664">
        <ele>757.6</ele>
      </trkpt>
      <trkpt lat="45.85893" lon="5.76684">
        <ele>757.2</ele>
      </trkpt>
      <trkpt lat="45.85893" lon="5.76684">
        <ele>757.2</ele>
      </trkpt>
      <trkpt lat="45.85902" lon="5.76716">
        <ele>753.9</ele>
      </trkpt>
      <trkpt lat="45.85902" lon="5.76716">
        <ele>753.9</ele>
      </trkpt>
      <trkpt lat="45.859" lon="5.7675">
        <ele>747.2</ele>
      </trkpt>
      <trkpt lat="45.859" lon="5.7675">
        <ele>747.2</ele>
      </trkpt>
      <trkpt lat="45.85915" lon="5.76771">
        <ele>748.7</ele>
      </trkpt>
      <trkpt lat="45.85915" lon="5.76771">
        <ele>748.7</ele>
      </trkpt>
      <trkpt lat="45.85925" lon="5.76792">
        <ele>750.4</ele>
      </trkpt>
      <trkpt lat="45.85925" lon="5.76792">
        <ele>750.4</ele>
      </trkpt>
      <trkpt lat="45.85925" lon="5.76815">
        <ele>748.2</ele>
      </trkpt>
      <trkpt lat="45.85925" lon="5.76815">
        <ele>748.2</ele>
      </trkpt>
      <trkpt lat="45.85918" lon="5.76837">
        <ele>741.4</ele>
      </trkpt>
      <trkpt lat="45.85918" lon="5.76837">
        <ele>741.4</ele>
      </trkpt>
      <trkpt lat="45.85919" lon="5.76858">
        <ele>740.6</ele>
      </trkpt>
      <trkpt lat="45.85919" lon="5.76858">
        <ele>740.6</ele>
      </trkpt>
      <trkpt lat="45.85919" lon="5.76879">
        <ele>739.8</ele>
      </trkpt>
      <trkpt lat="45.85919" lon="5.76879">
        <ele>739.8</ele>
      </trkpt>
      <trkpt lat="45.85924" lon="5.76892">
        <ele>741.4</ele>
      </trkpt>
      <trkpt lat="45.85924" lon="5.76892">
        <ele>741.4</ele>
      </trkpt>
      <trkpt lat="45.85925" lon="5.76909">
        <ele>740.8</ele>
      </trkpt>
      <trkpt lat="45.85925" lon="5.76909">
        <ele>740.8</ele>
      </trkpt>
      <trkpt lat="45.85904" lon="5.7695">
        <ele>727.8</ele>
      </trkpt>
      <trkpt lat="45.85904" lon="5.7695">
        <ele>727.8</ele>
      </trkpt>
      <trkpt lat="45.859" lon="5.7697">
        <ele>724.8</ele>
      </trkpt>
      <trkpt lat="45.859" lon="5.7697">
        <ele>724.8</ele>
      </trkpt>
      <trkpt lat="45.85899" lon="5.77001">
        <ele>723</ele>
      </trkpt>
      <trkpt lat="45.85899" lon="5.77001">
        <ele>723</ele>
      </trkpt>
      <trkpt lat="45.85899" lon="5.77054">
        <ele>714</ele>
      </trkpt>
      <trkpt lat="45.85899" lon="5.77054">
        <ele>714</ele>
      </trkpt>
      <trkpt lat="45.85901" lon="5.77103">
        <ele>705.7</ele>
      </trkpt>
      <trkpt lat="45.85901" lon="5.77103">
        <ele>705.7</ele>
      </trkpt>
      <trkpt lat="45.85897" lon="5.77103">
        <ele>704</ele>
      </trkpt>
      <trkpt lat="45.85897" lon="5.77103">
        <ele>704</ele>
      </trkpt>
      <trkpt lat="45.85876" lon="5.77045">
        <ele>703.7</ele>
      </trkpt>
      <trkpt lat="45.85876" lon="5.77045">
        <ele>703.7</ele>
      </trkpt>
      <trkpt lat="45.85858" lon="5.77004">
        <ele>699.7</ele>
      </trkpt>
      <trkpt lat="45.85858" lon="5.77004">
        <ele>699.7</ele>
      </trkpt>
      <trkpt lat="45.85834" lon="5.76882">
        <ele>698.9</ele>
      </trkpt>
      <trkpt lat="45.85834" lon="5.76882">
        <ele>698.9</ele>
      </trkpt>
      <trkpt lat="45.8583" lon="5.76879">
        <ele>698.8</ele>
      </trkpt>
      <trkpt lat="45.8583" lon="5.76879">
        <ele>698.8</ele>
      </trkpt>
      <trkpt lat="45.85824" lon="5.76884">
        <ele>696.7</ele>
      </trkpt>
      <trkpt lat="45.85824" lon="5.76884">
        <ele>696.7</ele>
      </trkpt>
      <trkpt lat="45.85818" lon="5.7698">
        <ele>681.8</ele>
      </trkpt>
      <trkpt lat="45.85818" lon="5.7698">
        <ele>681.8</ele>
      </trkpt>
      <trkpt lat="45.85812" lon="5.77004">
        <ele>676.7</ele>
      </trkpt>
      <trkpt lat="45.85812" lon="5.77004">
        <ele>676.7</ele>
      </trkpt>
      <trkpt lat="45.85813" lon="5.77025">
        <ele>673.9</ele>
      </trkpt>
      <trkpt lat="45.85813" lon="5.77025">
        <ele>673.9</ele>
      </trkpt>
      <trkpt lat="45.85825" lon="5.77063">
        <ele>674.3</ele>
      </trkpt>
      <trkpt lat="45.85825" lon="5.77063">
        <ele>674.3</ele>
      </trkpt>
      <trkpt lat="45.85819" lon="5.77129">
        <ele>660.1</ele>
      </trkpt>
      <trkpt lat="45.85819" lon="5.77129">
        <ele>660.1</ele>
      </trkpt>
      <trkpt lat="45.85822" lon="5.77155">
        <ele>656.7</ele>
      </trkpt>
      <trkpt lat="45.85822" lon="5.77155">
        <ele>656.7</ele>
      </trkpt>
      <trkpt lat="45.85859" lon="5.77208">
        <ele>662.9</ele>
      </trkpt>
      <trkpt lat="45.85859" lon="5.77208">
        <ele>662.9</ele>
      </trkpt>
      <trkpt lat="45.85861" lon="5.77224">
        <ele>660</ele>
      </trkpt>
      <trkpt lat="45.85861" lon="5.77224">
        <ele>660</ele>
      </trkpt>
      <trkpt lat="45.85866" lon="5.77288">
        <ele>652.2</ele>
      </trkpt>
      <trkpt lat="45.85866" lon="5.77288">
        <ele>652.2</ele>
      </trkpt>
      <trkpt lat="45.85863" lon="5.77295">
        <ele>649.1</ele>
      </trkpt>
      <trkpt lat="45.85863" lon="5.77295">
        <ele>649.1</ele>
      </trkpt>
      <trkpt lat="45.85858" lon="5.77294">
        <ele>646</ele>
      </trkpt>
      <trkpt lat="45.85858" lon="5.77294">
        <ele>646</ele>
      </trkpt>
      <trkpt lat="45.85843" lon="5.77248">
        <ele>644</ele>
      </trkpt>
      <trkpt lat="45.85843" lon="5.77248">
        <ele>644</ele>
      </trkpt>
      <trkpt lat="45.85826" lon="5.77221">
        <ele>642.1</ele>
      </trkpt>
      <trkpt lat="45.85826" lon="5.77221">
        <ele>642.1</ele>
      </trkpt>
      <trkpt lat="45.85797" lon="5.77208">
        <ele>632</ele>
      </trkpt>
      <trkpt lat="45.85797" lon="5.77208">
        <ele>632</ele>
      </trkpt>
      <trkpt lat="45.85771" lon="5.77192">
        <ele>624.2</ele>
      </trkpt>
      <trkpt lat="45.85771" lon="5.77192">
        <ele>624.2</ele>
      </trkpt>
      <trkpt lat="45.85733" lon="5.77105">
        <ele>622.8</ele>
      </trkpt>
      <trkpt lat="45.85733" lon="5.77105">
        <ele>622.8</ele>
      </trkpt>
      <trkpt lat="45.85714" lon="5.77089">
        <ele>618.5</ele>
      </trkpt>
      <trkpt lat="45.85714" lon="5.77089">
        <ele>618.5</ele>
      </trkpt>
      <trkpt lat="45.85712" lon="5.77044">
        <ele>630</ele>
      </trkpt>
      <trkpt lat="45.85712" lon="5.77044">
        <ele>630</ele>
      </trkpt>
      <trkpt lat="45.85706" lon="5.77046">
        <ele>627.7</ele>
      </trkpt>
      <trkpt lat="45.85706" lon="5.77046">
        <ele>627.7</ele>
      </trkpt>
      <trkpt lat="45.85696" lon="5.77099">
        <ele>610.2</ele>
      </trkpt>
      <trkpt lat="45.85696" lon="5.77099">
        <ele>610.2</ele>
      </trkpt>
      <trkpt lat="45.85704" lon="5.77151">
        <ele>603.5</ele>
      </trkpt>
      <trkpt lat="45.85704" lon="5.77151">
        <ele>603.5</ele>
      </trkpt>
      <trkpt lat="45.85704" lon="5.77172">
        <ele>599.2</ele>
      </trkpt>
      <trkpt lat="45.85704" lon="5.77172">
        <ele>599.2</ele>
      </trkpt>
      <trkpt lat="45.85715" lon="5.77236">
        <ele>587.2</ele>
      </trkpt>
      <trkpt lat="45.85715" lon="5.77236">
        <ele>587.2</ele>
      </trkpt>
      <trkpt lat="45.85725" lon="5.77256">
        <ele>586.4</ele>
      </trkpt>
      <trkpt lat="45.85725" lon="5.77256">
        <ele>586.4</ele>
      </trkpt>
      <trkpt lat="45.85747" lon="5.77272">
        <ele>591.5</ele>
      </trkpt>
      <trkpt lat="45.85747" lon="5.77272">
        <ele>591.5</ele>
      </trkpt>
      <trkpt lat="45.85754" lon="5.77278">
        <ele>593.2</ele>
      </trkpt>
      <trkpt lat="45.85754" lon="5.77278">
        <ele>593.2</ele>
      </trkpt>
      <trkpt lat="45.85749" lon="5.77283">
        <ele>589.3</ele>
      </trkpt>
      <trkpt lat="45.85749" lon="5.77283">
        <ele>589.3</ele>
      </trkpt>
      <trkpt lat="45.85701" lon="5.77264">
        <ele>572.5</ele>
      </trkpt>
      <trkpt lat="45.85701" lon="5.77264">
        <ele>572.5</ele>
      </trkpt>
      <trkpt lat="45.85669" lon="5.7724">
        <ele>565.6</ele>
      </trkpt>
      <trkpt lat="45.85669" lon="5.7724">
        <ele>565.6</ele>
      </trkpt>
      <trkpt lat="45.85641" lon="5.77205">
        <ele>565.5</ele>
      </trkpt>
      <trkpt lat="45.85641" lon="5.77205">
        <ele>565.5</ele>
      </trkpt>
      <trkpt lat="45.85626" lon="5.7716">
        <ele>572.6</ele>
      </trkpt>
      <trkpt lat="45.85626" lon="5.7716">
        <ele>572.6</ele>
      </trkpt>
      <trkpt lat="45.85622" lon="5.77165">
        <ele>570.2</ele>
      </trkpt>
      <trkpt lat="45.85622" lon="5.77165">
        <ele>570.2</ele>
      </trkpt>
      <trkpt lat="45.85616" lon="5.77222">
        <ele>552.3</ele>
      </trkpt>
      <trkpt lat="45.85616" lon="5.77222">
        <ele>552.3</ele>
      </trkpt>
      <trkpt lat="45.85637" lon="5.77287">
        <ele>539.2</ele>
      </trkpt>
      <trkpt lat="45.85637" lon="5.77287">
        <ele>539.2</ele>
      </trkpt>
      <trkpt lat="45.85683" lon="5.77327">
        <ele>543.7</ele>
      </trkpt>
      <trkpt lat="45.85683" lon="5.77327">
        <ele>543.7</ele>
      </trkpt>
      <trkpt lat="45.85671" lon="5.7733">
        <ele>536.7</ele>
      </trkpt>
      <trkpt lat="45.85671" lon="5.7733">
        <ele>536.7</ele>
      </trkpt>
      <trkpt lat="45.85637" lon="5.77317">
        <ele>528.3</ele>
      </trkpt>
      <trkpt lat="45.85637" lon="5.77317">
        <ele>528.3</ele>
      </trkpt>
      <trkpt lat="45.85615" lon="5.77306">
        <ele>524.5</ele>
      </trkpt>
      <trkpt lat="45.85615" lon="5.77306">
        <ele>524.5</ele>
      </trkpt>
      <trkpt lat="45.85589" lon="5.77277">
        <ele>526.3</ele>
      </trkpt>
      <trkpt lat="45.85589" lon="5.77277">
        <ele>526.3</ele>
      </trkpt>
      <trkpt lat="45.85573" lon="5.77246">
        <ele>529.5</ele>
      </trkpt>
      <trkpt lat="45.85573" lon="5.77246">
        <ele>529.5</ele>
      </trkpt>
      <trkpt lat="45.8555" lon="5.77259">
        <ele>513.3</ele>
      </trkpt>
      <trkpt lat="45.8555" lon="5.77259">
        <ele>513.3</ele>
      </trkpt>
      <trkpt lat="45.85533" lon="5.77277">
        <ele>498.5</ele>
      </trkpt>
      <trkpt lat="45.85533" lon="5.77277">
        <ele>498.5</ele>
      </trkpt>
      <trkpt lat="45.85516" lon="5.77285">
        <ele>486.8</ele>
      </trkpt>
      <trkpt lat="45.85516" lon="5.77285">
        <ele>486.8</ele>
      </trkpt>
      <trkpt lat="45.85511" lon="5.77295">
        <ele>480.9</ele>
      </trkpt>
      <trkpt lat="45.85511" lon="5.77295">
        <ele>480.9</ele>
      </trkpt>
      <trkpt lat="45.8554" lon="5.77288">
        <ele>498.2</ele>
      </trkpt>
      <trkpt lat="45.8554" lon="5.77288">
        <ele>498.2</ele>
      </trkpt>
      <trkpt lat="45.85562" lon="5.77288">
        <ele>509.7</ele>
      </trkpt>
      <trkpt lat="45.85562" lon="5.77288">
        <ele>509.7</ele>
      </trkpt>
      <trkpt lat="45.85581" lon="5.77321">
        <ele>507.4</ele>
      </trkpt>
      <trkpt lat="45.85581" lon="5.77321">
        <ele>507.4</ele>
      </trkpt>
      <trkpt lat="45.85613" lon="5.7737">
        <ele>498.7</ele>
      </trkpt>
      <trkpt lat="45.85613" lon="5.7737">
        <ele>498.7</ele>
      </trkpt>
      <trkpt lat="45.85634" lon="5.77381">
        <ele>500.4</ele>
      </trkpt>
      <trkpt lat="45.85634" lon="5.77381">
        <ele>500.4</ele>
      </trkpt>
      <trkpt lat="45.85681" lon="5.77458">
        <ele>489.1</ele>
      </trkpt>
      <trkpt lat="45.85681" lon="5.77458">
        <ele>489.1</ele>
      </trkpt>
      <trkpt lat="45.85706" lon="5.77496">
        <ele>488.7</ele>
      </trkpt>
      <trkpt lat="45.85706" lon="5.77496">
        <ele>488.7</ele>
      </trkpt>
      <trkpt lat="45.85696" lon="5.77526">
        <ele>483.1</ele>
      </trkpt>
      <trkpt lat="45.85696" lon="5.77526">
        <ele>483.1</ele>
      </trkpt>
      <trkpt lat="45.85684" lon="5.77538">
        <ele>477.8</ele>
      </trkpt>
      <trkpt lat="45.85684" lon="5.77538">
        <ele>477.8</ele>
      </trkpt>
      <trkpt lat="45.8568" lon="5.77555">
        <ele>476.2</ele>
      </trkpt>
      <trkpt lat="45.8568" lon="5.77555">
        <ele>476.2</ele>
      </trkpt>
      <trkpt lat="45.8567" lon="5.77551">
        <ele>499.96</ele>
        <time>2021-06-29T14:32:33Z</time>
      </trkpt>
      <trkpt lat="45.8566" lon="5.77573">
        <ele>496.92</ele>
        <time>2021-06-29T14:32:39Z</time>
      </trkpt>
      <trkpt lat="45.85644" lon="5.7762">
        <ele>493.77</ele>
        <time>2021-06-29T14:32:49Z</time>
      </trkpt>
      <trkpt lat="45.8564" lon="5.77626">
        <ele>493.39</ele>
        <time>2021-06-29T14:32:50Z</time>
      </trkpt>
      <trkpt lat="45.85636" lon="5.77631">
        <ele>492.81</ele>
        <time>2021-06-29T14:32:51Z</time>
      </trkpt>
      <trkpt lat="45.85631" lon="5.77636">
        <ele>492.47</ele>
        <time>2021-06-29T14:32:52Z</time>
      </trkpt>
      <trkpt lat="45.85626" lon="5.7764">
        <ele>492.23</ele>
        <time>2021-06-29T14:32:53Z</time>
      </trkpt>
      <trkpt lat="45.85617" lon="5.77649">
        <ele>491.53</ele>
        <time>2021-06-29T14:32:55Z</time>
      </trkpt>
      <trkpt lat="45.85612" lon="5.77655">
        <ele>491.14</ele>
        <time>2021-06-29T14:32:56Z</time>
      </trkpt>
      <trkpt lat="45.85609" lon="5.77662">
        <ele>490.17</ele>
        <time>2021-06-29T14:32:57Z</time>
      </trkpt>
      <trkpt lat="45.85606" lon="5.7767">
        <ele>489.6</ele>
        <time>2021-06-29T14:32:58Z</time>
      </trkpt>
      <trkpt lat="45.85605" lon="5.77678">
        <ele>488.78</ele>
        <time>2021-06-29T14:32:59Z</time>
      </trkpt>
      <trkpt lat="45.85603" lon="5.77687">
        <ele>487.98</ele>
        <time>2021-06-29T14:33:00Z</time>
      </trkpt>
      <trkpt lat="45.85603" lon="5.77695">
        <ele>487.26</ele>
        <time>2021-06-29T14:33:01Z</time>
      </trkpt>
      <trkpt lat="45.85603" lon="5.77704">
        <ele>486.65</ele>
        <time>2021-06-29T14:33:02Z</time>
      </trkpt>
      <trkpt lat="45.85604" lon="5.77712">
        <ele>486.1</ele>
        <time>2021-06-29T14:33:03Z</time>
      </trkpt>
      <trkpt lat="45.85605" lon="5.77755">
        <ele>482.81</ele>
        <time>2021-06-29T14:33:08Z</time>
      </trkpt>
      <trkpt lat="45.85608" lon="5.778">
        <ele>479.24</ele>
        <time>2021-06-29T14:33:14Z</time>
      </trkpt>
      <trkpt lat="45.85613" lon="5.77832">
        <ele>475.72</ele>
        <time>2021-06-29T14:33:20Z</time>
      </trkpt>
      <trkpt lat="45.85621" lon="5.77863">
        <ele>473.56</ele>
        <time>2021-06-29T14:33:26Z</time>
      </trkpt>
      <trkpt lat="45.85623" lon="5.77868">
        <ele>473.25</ele>
        <time>2021-06-29T14:33:27Z</time>
      </trkpt>
      <trkpt lat="45.85626" lon="5.77874">
        <ele>473.02</ele>
        <time>2021-06-29T14:33:28Z</time>
      </trkpt>
      <trkpt lat="45.85629" lon="5.77879">
        <ele>472.9</ele>
        <time>2021-06-29T14:33:29Z</time>
      </trkpt>
      <trkpt lat="45.85632" lon="5.77884">
        <ele>472.6</ele>
        <time>2021-06-29T14:33:30Z</time>
      </trkpt>
      <trkpt lat="45.85635" lon="5.77889">
        <ele>472.34</ele>
        <time>2021-06-29T14:33:31Z</time>
      </trkpt>
      <trkpt lat="45.85639" lon="5.77893">
        <ele>471.77</ele>
        <time>2021-06-29T14:33:32Z</time>
      </trkpt>
      <trkpt lat="45.85644" lon="5.77898">
        <ele>471.48</ele>
        <time>2021-06-29T14:33:33Z</time>
      </trkpt>
      <trkpt lat="45.85684" lon="5.77943">
        <ele>468.38</ele>
        <time>2021-06-29T14:33:42Z</time>
      </trkpt>
      <trkpt lat="45.85701" lon="5.77966">
        <ele>465.76</ele>
        <time>2021-06-29T14:33:46Z</time>
      </trkpt>
      <trkpt lat="45.85722" lon="5.77995">
        <ele>463.12</ele>
        <time>2021-06-29T14:33:51Z</time>
      </trkpt>
      <trkpt lat="45.85727" lon="5.77999">
        <ele>462.51</ele>
        <time>2021-06-29T14:33:52Z</time>
      </trkpt>
      <trkpt lat="45.85749" lon="5.78012">
        <ele>460.68</ele>
        <time>2021-06-29T14:33:56Z</time>
      </trkpt>
      <trkpt lat="45.85764" lon="5.78025">
        <ele>459.4</ele>
        <time>2021-06-29T14:33:59Z</time>
      </trkpt>
      <trkpt lat="45.85769" lon="5.78031">
        <ele>458.39</ele>
        <time>2021-06-29T14:34:00Z</time>
      </trkpt>
      <trkpt lat="45.85787" lon="5.78054">
        <ele>456.17</ele>
        <time>2021-06-29T14:34:04Z</time>
      </trkpt>
      <trkpt lat="45.85791" lon="5.78062">
        <ele>455.52</ele>
        <time>2021-06-29T14:34:05Z</time>
      </trkpt>
      <trkpt lat="45.85794" lon="5.7807">
        <ele>454.84</ele>
        <time>2021-06-29T14:34:06Z</time>
      </trkpt>
      <trkpt lat="45.85797" lon="5.78079">
        <ele>454.21</ele>
        <time>2021-06-29T14:34:07Z</time>
      </trkpt>
      <trkpt lat="45.85801" lon="5.78088">
        <ele>453.66</ele>
        <time>2021-06-29T14:34:08Z</time>
      </trkpt>
      <trkpt lat="45.85807" lon="5.78109">
        <ele>452.62</ele>
        <time>2021-06-29T14:34:10Z</time>
      </trkpt>
      <trkpt lat="45.8581" lon="5.78121">
        <ele>451.37</ele>
        <time>2021-06-29T14:34:11Z</time>
      </trkpt>
      <trkpt lat="45.85827" lon="5.78177">
        <ele>448.32</ele>
        <time>2021-06-29T14:34:15Z</time>
      </trkpt>
      <trkpt lat="45.85833" lon="5.78188">
        <ele>447.9</ele>
        <time>2021-06-29T14:34:16Z</time>
      </trkpt>
      <trkpt lat="45.85843" lon="5.78212">
        <ele>445.35</ele>
        <time>2021-06-29T14:34:19Z</time>
      </trkpt>
      <trkpt lat="45.85845" lon="5.78221">
        <ele>444.1</ele>
        <time>2021-06-29T14:34:20Z</time>
      </trkpt>
      <trkpt lat="45.85843" lon="5.78231">
        <ele>442.72</ele>
        <time>2021-06-29T14:34:21Z</time>
      </trkpt>
      <trkpt lat="45.8584" lon="5.78238">
        <ele>441.33</ele>
        <time>2021-06-29T14:34:22Z</time>
      </trkpt>
      <trkpt lat="45.85837" lon="5.78244">
        <ele>439.93</ele>
        <time>2021-06-29T14:34:23Z</time>
      </trkpt>
      <trkpt lat="45.85832" lon="5.78246">
        <ele>438.61</ele>
        <time>2021-06-29T14:34:24Z</time>
      </trkpt>
      <trkpt lat="45.85826" lon="5.78242">
        <ele>437.6</ele>
        <time>2021-06-29T14:34:25Z</time>
      </trkpt>
      <trkpt lat="45.85822" lon="5.78237">
        <ele>436.87</ele>
        <time>2021-06-29T14:34:26Z</time>
      </trkpt>
      <trkpt lat="45.85817" lon="5.78232">
        <ele>436.2</ele>
        <time>2021-06-29T14:34:27Z</time>
      </trkpt>
      <trkpt lat="45.85812" lon="5.78228">
        <ele>435.66</ele>
        <time>2021-06-29T14:34:28Z</time>
      </trkpt>
      <trkpt lat="45.85792" lon="5.78215">
        <ele>433.91</ele>
        <time>2021-06-29T14:34:32Z</time>
      </trkpt>
      <trkpt lat="45.8578" lon="5.78208">
        <ele>432.53</ele>
        <time>2021-06-29T14:34:34Z</time>
      </trkpt>
      <trkpt lat="45.85758" lon="5.78198">
        <ele>429.41</ele>
        <time>2021-06-29T14:34:37Z</time>
      </trkpt>
      <trkpt lat="45.85725" lon="5.78177">
        <ele>426.37</ele>
        <time>2021-06-29T14:34:41Z</time>
      </trkpt>
      <trkpt lat="45.85718" lon="5.7817">
        <ele>425.99</ele>
        <time>2021-06-29T14:34:42Z</time>
      </trkpt>
      <trkpt lat="45.85712" lon="5.78163">
        <ele>425.15</ele>
        <time>2021-06-29T14:34:43Z</time>
      </trkpt>
      <trkpt lat="45.85706" lon="5.78157">
        <ele>424.63</ele>
        <time>2021-06-29T14:34:44Z</time>
      </trkpt>
      <trkpt lat="45.85699" lon="5.78153">
        <ele>424.06</ele>
        <time>2021-06-29T14:34:45Z</time>
      </trkpt>
      <trkpt lat="45.85693" lon="5.7815">
        <ele>423.18</ele>
        <time>2021-06-29T14:34:46Z</time>
      </trkpt>
      <trkpt lat="45.85687" lon="5.78151">
        <ele>422.1</ele>
        <time>2021-06-29T14:34:47Z</time>
      </trkpt>
      <trkpt lat="45.85683" lon="5.78153">
        <ele>420.67</ele>
        <time>2021-06-29T14:34:48Z</time>
      </trkpt>
      <trkpt lat="45.8568" lon="5.78157">
        <ele>419.5</ele>
        <time>2021-06-29T14:34:49Z</time>
      </trkpt>
      <trkpt lat="45.8568" lon="5.78161">
        <ele>418.23</ele>
        <time>2021-06-29T14:34:50Z</time>
      </trkpt>
      <trkpt lat="45.8568" lon="5.78167">
        <ele>417.04</ele>
        <time>2021-06-29T14:34:51Z</time>
      </trkpt>
      <trkpt lat="45.85682" lon="5.78173">
        <ele>416.26</ele>
        <time>2021-06-29T14:34:52Z</time>
      </trkpt>
      <trkpt lat="45.85684" lon="5.7818">
        <ele>415.26</ele>
        <time>2021-06-29T14:34:53Z</time>
      </trkpt>
      <trkpt lat="45.85686" lon="5.78188">
        <ele>414.54</ele>
        <time>2021-06-29T14:34:54Z</time>
      </trkpt>
      <trkpt lat="45.85694" lon="5.78216">
        <ele>411.7</ele>
        <time>2021-06-29T14:34:58Z</time>
      </trkpt>
      <trkpt lat="45.85706" lon="5.78275">
        <ele>408.6</ele>
        <time>2021-06-29T14:35:04Z</time>
      </trkpt>
      <trkpt lat="45.85721" lon="5.78331">
        <ele>404.98</ele>
        <time>2021-06-29T14:35:09Z</time>
      </trkpt>
      <trkpt lat="45.85737" lon="5.78375">
        <ele>401.36</ele>
        <time>2021-06-29T14:35:13Z</time>
      </trkpt>
      <trkpt lat="45.85743" lon="5.78383">
        <ele>400.45</ele>
        <time>2021-06-29T14:35:14Z</time>
      </trkpt>
      <trkpt lat="45.85753" lon="5.78402">
        <ele>397.7</ele>
        <time>2021-06-29T14:35:17Z</time>
      </trkpt>
      <trkpt lat="45.85755" lon="5.78408">
        <ele>396.83</ele>
        <time>2021-06-29T14:35:18Z</time>
      </trkpt>
      <trkpt lat="45.85755" lon="5.78413">
        <ele>396.14</ele>
        <time>2021-06-29T14:35:19Z</time>
      </trkpt>
      <trkpt lat="45.85755" lon="5.78418">
        <ele>395.45</ele>
        <time>2021-06-29T14:35:20Z</time>
      </trkpt>
      <trkpt lat="45.85753" lon="5.78424">
        <ele>394.38</ele>
        <time>2021-06-29T14:35:21Z</time>
      </trkpt>
      <trkpt lat="45.8575" lon="5.78427">
        <ele>393.32</ele>
        <time>2021-06-29T14:35:22Z</time>
      </trkpt>
      <trkpt lat="45.85745" lon="5.78429">
        <ele>391.93</ele>
        <time>2021-06-29T14:35:23Z</time>
      </trkpt>
      <trkpt lat="45.8574" lon="5.78427">
        <ele>391.93</ele>
        <time>2021-06-29T14:35:24Z</time>
      </trkpt>
      <trkpt lat="45.85734" lon="5.78425">
        <ele>390.77</ele>
        <time>2021-06-29T14:35:25Z</time>
      </trkpt>
      <trkpt lat="45.85728" lon="5.78423">
        <ele>390.44</ele>
        <time>2021-06-29T14:35:26Z</time>
      </trkpt>
      <trkpt lat="45.85722" lon="5.7842">
        <ele>390.19</ele>
        <time>2021-06-29T14:35:27Z</time>
      </trkpt>
      <trkpt lat="45.857" lon="5.78411">
        <ele>388.55</ele>
        <time>2021-06-29T14:35:30Z</time>
      </trkpt>
      <trkpt lat="45.85644" lon="5.7839">
        <ele>385.13</ele>
        <time>2021-06-29T14:35:36Z</time>
      </trkpt>
      <trkpt lat="45.85606" lon="5.78365">
        <ele>381.76</ele>
        <time>2021-06-29T14:35:41Z</time>
      </trkpt>
      <trkpt lat="45.856" lon="5.78358">
        <ele>381.28</ele>
        <time>2021-06-29T14:35:42Z</time>
      </trkpt>
      <trkpt lat="45.85595" lon="5.7835">
        <ele>380.86</ele>
        <time>2021-06-29T14:35:43Z</time>
      </trkpt>
      <trkpt lat="45.85571" lon="5.7832">
        <ele>377.1</ele>
        <time>2021-06-29T14:35:47Z</time>
      </trkpt>
      <trkpt lat="45.85559" lon="5.78306">
        <ele>373.34</ele>
        <time>2021-06-29T14:35:49Z</time>
      </trkpt>
      <trkpt lat="45.85526" lon="5.78265">
        <ele>370.84</ele>
        <time>2021-06-29T14:35:54Z</time>
      </trkpt>
      <trkpt lat="45.85498" lon="5.78214">
        <ele>367.48</ele>
        <time>2021-06-29T14:36:00Z</time>
      </trkpt>
      <trkpt lat="45.85494" lon="5.78207">
        <ele>366.94</ele>
        <time>2021-06-29T14:36:01Z</time>
      </trkpt>
      <trkpt lat="45.85479" lon="5.78168">
        <ele>363.59</ele>
        <time>2021-06-29T14:36:06Z</time>
      </trkpt>
      <trkpt lat="45.8545" lon="5.78092">
        <ele>360.56</ele>
        <time>2021-06-29T14:36:14Z</time>
      </trkpt>
      <trkpt lat="45.85434" lon="5.78054">
        <ele>358.81</ele>
        <time>2021-06-29T14:36:18Z</time>
      </trkpt>
      <trkpt lat="45.85427" lon="5.78046">
        <ele>357.88</ele>
        <time>2021-06-29T14:36:19Z</time>
      </trkpt>
      <trkpt lat="45.85408" lon="5.78017">
        <ele>355.36</ele>
        <time>2021-06-29T14:36:22Z</time>
      </trkpt>
      <trkpt lat="45.85393" lon="5.77986">
        <ele>353.01</ele>
        <time>2021-06-29T14:36:25Z</time>
      </trkpt>
      <trkpt lat="45.85387" lon="5.7798">
        <ele>352.49</ele>
        <time>2021-06-29T14:36:26Z</time>
      </trkpt>
      <trkpt lat="45.85382" lon="5.77974">
        <ele>352.11</ele>
        <time>2021-06-29T14:36:27Z</time>
      </trkpt>
      <trkpt lat="45.85378" lon="5.7797">
        <ele>351.58</ele>
        <time>2021-06-29T14:36:28Z</time>
      </trkpt>
      <trkpt lat="45.85374" lon="5.77968">
        <ele>350.97</ele>
        <time>2021-06-29T14:36:29Z</time>
      </trkpt>
      <trkpt lat="45.8537" lon="5.77968">
        <ele>350.26</ele>
        <time>2021-06-29T14:36:30Z</time>
      </trkpt>
      <trkpt lat="45.85367" lon="5.77974">
        <ele>349.61</ele>
        <time>2021-06-29T14:36:31Z</time>
      </trkpt>
      <trkpt lat="45.85367" lon="5.77978">
        <ele>348.95</ele>
        <time>2021-06-29T14:36:32Z</time>
      </trkpt>
      <trkpt lat="45.85366" lon="5.77983">
        <ele>347.74</ele>
        <time>2021-06-29T14:36:33Z</time>
      </trkpt>
      <trkpt lat="45.85367" lon="5.77987">
        <ele>346.84</ele>
        <time>2021-06-29T14:36:34Z</time>
      </trkpt>
      <trkpt lat="45.85367" lon="5.77992">
        <ele>345.29</ele>
        <time>2021-06-29T14:36:35Z</time>
      </trkpt>
      <trkpt lat="45.85367" lon="5.77997">
        <ele>345.29</ele>
        <time>2021-06-29T14:36:36Z</time>
      </trkpt>
      <trkpt lat="45.85368" lon="5.78002">
        <ele>344.84</ele>
        <time>2021-06-29T14:36:37Z</time>
      </trkpt>
      <trkpt lat="45.85369" lon="5.78008">
        <ele>344.32</ele>
        <time>2021-06-29T14:36:38Z</time>
      </trkpt>
      <trkpt lat="45.8537" lon="5.78014">
        <ele>344.09</ele>
        <time>2021-06-29T14:36:39Z</time>
      </trkpt>
      <trkpt lat="45.85379" lon="5.78043">
        <ele>342.75</ele>
        <time>2021-06-29T14:36:48Z</time>
      </trkpt>
      <trkpt lat="45.8538" lon="5.78046">
        <ele>340.78</ele>
        <time>2021-06-29T14:37:09Z</time>
      </trkpt>
      <trkpt lat="45.8538" lon="5.78049">
        <ele>340.78</ele>
        <time>2021-06-29T14:37:10Z</time>
      </trkpt>
      <trkpt lat="45.85381" lon="5.78052">
        <ele>340.82</ele>
        <time>2021-06-29T14:37:11Z</time>
      </trkpt>
      <trkpt lat="45.85381" lon="5.78055">
        <ele>340.85</ele>
        <time>2021-06-29T14:37:12Z</time>
      </trkpt>
      <trkpt lat="45.85382" lon="5.78058">
        <ele>340.86</ele>
        <time>2021-06-29T14:37:13Z</time>
      </trkpt>
      <trkpt lat="45.85384" lon="5.78108">
        <ele>340.15</ele>
        <time>2021-06-29T14:37:23Z</time>
      </trkpt>
      <trkpt lat="45.85375" lon="5.78204">
        <ele>337.15</ele>
        <time>2021-06-29T14:37:35Z</time>
      </trkpt>
      <trkpt lat="45.85368" lon="5.7832">
        <ele>333.9</ele>
        <time>2021-06-29T14:37:46Z</time>
      </trkpt>
      <trkpt lat="45.85368" lon="5.78329">
        <ele>333.63</ele>
        <time>2021-06-29T14:37:47Z</time>
      </trkpt>
      <trkpt lat="45.85364" lon="5.78424">
        <ele>330.51</ele>
        <time>2021-06-29T14:37:56Z</time>
      </trkpt>
      <trkpt lat="45.85363" lon="5.78501">
        <ele>327.33</ele>
        <time>2021-06-29T14:38:02Z</time>
      </trkpt>
      <trkpt lat="45.85361" lon="5.78574">
        <ele>323.65</ele>
        <time>2021-06-29T14:38:07Z</time>
      </trkpt>
      <trkpt lat="45.85358" lon="5.78585">
        <ele>322.86</ele>
        <time>2021-06-29T14:38:08Z</time>
      </trkpt>
      <trkpt lat="45.85354" lon="5.78595">
        <ele>322.17</ele>
        <time>2021-06-29T14:38:09Z</time>
      </trkpt>
      <trkpt lat="45.85349" lon="5.78603">
        <ele>321.47</ele>
        <time>2021-06-29T14:38:10Z</time>
      </trkpt>
      <trkpt lat="45.85343" lon="5.78605">
        <ele>320.84</ele>
        <time>2021-06-29T14:38:11Z</time>
      </trkpt>
      <trkpt lat="45.85335" lon="5.78605">
        <ele>319.96</ele>
        <time>2021-06-29T14:38:12Z</time>
      </trkpt>
      <trkpt lat="45.85326" lon="5.78597">
        <ele>319.19</ele>
        <time>2021-06-29T14:38:13Z</time>
      </trkpt>
      <trkpt lat="45.8532" lon="5.78589">
        <ele>317.94</ele>
        <time>2021-06-29T14:38:14Z</time>
      </trkpt>
      <trkpt lat="45.85316" lon="5.78579">
        <ele>316.12</ele>
        <time>2021-06-29T14:38:15Z</time>
      </trkpt>
      <trkpt lat="45.85312" lon="5.7857">
        <ele>315.29</ele>
        <time>2021-06-29T14:38:16Z</time>
      </trkpt>
      <trkpt lat="45.85298" lon="5.78533">
        <ele>311.96</ele>
        <time>2021-06-29T14:38:20Z</time>
      </trkpt>
      <trkpt lat="45.8529" lon="5.78508">
        <ele>310.8</ele>
        <time>2021-06-29T14:38:23Z</time>
      </trkpt>
      <trkpt lat="45.85282" lon="5.78481">
        <ele>309.2</ele>
        <time>2021-06-29T14:38:27Z</time>
      </trkpt>
      <trkpt lat="45.85243" lon="5.78408">
        <ele>307.53</ele>
        <time>2021-06-29T14:38:39Z</time>
      </trkpt>
      <trkpt lat="45.85203" lon="5.78342">
        <ele>305.19</ele>
        <time>2021-06-29T14:38:47Z</time>
      </trkpt>
      <trkpt lat="45.85198" lon="5.78335">
        <ele>305.02</ele>
        <time>2021-06-29T14:38:48Z</time>
      </trkpt>
      <trkpt lat="45.85192" lon="5.78329">
        <ele>304.87</ele>
        <time>2021-06-29T14:38:49Z</time>
      </trkpt>
      <trkpt lat="45.85184" lon="5.78326">
        <ele>304.59</ele>
        <time>2021-06-29T14:38:50Z</time>
      </trkpt>
      <trkpt lat="45.85176" lon="5.78326">
        <ele>304.35</ele>
        <time>2021-06-29T14:38:51Z</time>
      </trkpt>
      <trkpt lat="45.85167" lon="5.78327">
        <ele>304.04</ele>
        <time>2021-06-29T14:38:52Z</time>
      </trkpt>
      <trkpt lat="45.85157" lon="5.7833">
        <ele>303.49</ele>
        <time>2021-06-29T14:38:53Z</time>
      </trkpt>
      <trkpt lat="45.85149" lon="5.78334">
        <ele>302.45</ele>
        <time>2021-06-29T14:38:54Z</time>
      </trkpt>
      <trkpt lat="45.8514" lon="5.78338">
        <ele>301.81</ele>
        <time>2021-06-29T14:38:55Z</time>
      </trkpt>
      <trkpt lat="45.85105" lon="5.78355">
        <ele>298.14</ele>
        <time>2021-06-29T14:39:01Z</time>
      </trkpt>
      <trkpt lat="45.85095" lon="5.7836">
        <ele>295.02</ele>
        <time>2021-06-29T14:39:03Z</time>
      </trkpt>
      <trkpt lat="45.8509" lon="5.78362">
        <ele>295.02</ele>
        <time>2021-06-29T14:39:04Z</time>
      </trkpt>
      <trkpt lat="45.85076" lon="5.7837">
        <ele>291.54</ele>
        <time>2021-06-29T14:39:07Z</time>
      </trkpt>
      <trkpt lat="45.85065" lon="5.78373">
        <ele>290.31</ele>
        <time>2021-06-29T14:39:09Z</time>
      </trkpt>
      <trkpt lat="45.85054" lon="5.78376">
        <ele>289.14</ele>
        <time>2021-06-29T14:39:11Z</time>
      </trkpt>
      <trkpt lat="45.85039" lon="5.78384">
        <ele>287.47</ele>
        <time>2021-06-29T14:39:14Z</time>
      </trkpt>
      <trkpt lat="45.85033" lon="5.78387">
        <ele>287.11</ele>
        <time>2021-06-29T14:39:15Z</time>
      </trkpt>
      <trkpt lat="45.85028" lon="5.78389">
        <ele>286.54</ele>
        <time>2021-06-29T14:39:16Z</time>
      </trkpt>
      <trkpt lat="45.85022" lon="5.7839">
        <ele>286.23</ele>
        <time>2021-06-29T14:39:17Z</time>
      </trkpt>
      <trkpt lat="45.85017" lon="5.78391">
        <ele>285.99</ele>
        <time>2021-06-29T14:39:18Z</time>
      </trkpt>
      <trkpt lat="45.85011" lon="5.7839">
        <ele>285.78</ele>
        <time>2021-06-29T14:39:19Z</time>
      </trkpt>
      <trkpt lat="45.85006" lon="5.78389">
        <ele>285.68</ele>
        <time>2021-06-29T14:39:20Z</time>
      </trkpt>
      <trkpt lat="45.85001" lon="5.78385">
        <ele>285.61</ele>
        <time>2021-06-29T14:39:21Z</time>
      </trkpt>
      <trkpt lat="45.84997" lon="5.78382">
        <ele>285.43</ele>
        <time>2021-06-29T14:39:22Z</time>
      </trkpt>
      <trkpt lat="45.84993" lon="5.78378">
        <ele>285.08</ele>
        <time>2021-06-29T14:39:23Z</time>
      </trkpt>
      <trkpt lat="45.84988" lon="5.78375">
        <ele>284.88</ele>
        <time>2021-06-29T14:39:24Z</time>
      </trkpt>
      <trkpt lat="45.84963" lon="5.78357">
        <ele>283.49</ele>
        <time>2021-06-29T14:39:29Z</time>
      </trkpt>
      <trkpt lat="45.84959" lon="5.78352">
        <ele>283.33</ele>
        <time>2021-06-29T14:39:30Z</time>
      </trkpt>
      <trkpt lat="45.8495" lon="5.78342">
        <ele>283.01</ele>
        <time>2021-06-29T14:39:32Z</time>
      </trkpt>
      <trkpt lat="45.84915" lon="5.78311">
        <ele>281.29</ele>
        <time>2021-06-29T14:39:40Z</time>
      </trkpt>
      <trkpt lat="45.8491" lon="5.78309">
        <ele>281.18</ele>
        <time>2021-06-29T14:39:41Z</time>
      </trkpt>
      <trkpt lat="45.84894" lon="5.78303">
        <ele>280.93</ele>
        <time>2021-06-29T14:39:44Z</time>
      </trkpt>
      <trkpt lat="45.84888" lon="5.78302">
        <ele>280.88</ele>
        <time>2021-06-29T14:39:45Z</time>
      </trkpt>
      <trkpt lat="45.84882" lon="5.78302">
        <ele>280.81</ele>
        <time>2021-06-29T14:39:46Z</time>
      </trkpt>
      <trkpt lat="45.84876" lon="5.78302">
        <ele>280.71</ele>
        <time>2021-06-29T14:39:47Z</time>
      </trkpt>
      <trkpt lat="45.84871" lon="5.78302">
        <ele>280.58</ele>
        <time>2021-06-29T14:39:48Z</time>
      </trkpt>
      <trkpt lat="45.84859" lon="5.78304">
        <ele>280.12</ele>
        <time>2021-06-29T14:39:51Z</time>
      </trkpt>
      <trkpt lat="45.84857" lon="5.78302">
        <ele>280.12</ele>
        <time>2021-06-29T14:39:52Z</time>
      </trkpt>
      <trkpt lat="45.84857" lon="5.78304">
        <ele>279.18</ele>
        <time>2021-06-29T14:39:58Z</time>
      </trkpt>
      <trkpt lat="45.84858" lon="5.78305">
        <ele>279.1</ele>
        <time>2021-06-29T14:39:59Z</time>
      </trkpt>
      <trkpt lat="45.8486" lon="5.78305">
        <ele>279.07</ele>
        <time>2021-06-29T14:40:00Z</time>
      </trkpt>
      <trkpt lat="45.84863" lon="5.78304">
        <ele>279</ele>
        <time>2021-06-29T14:40:03Z</time>
      </trkpt>
      <trkpt lat="45.8487" lon="5.78305">
        <ele>278.97</ele>
        <time>2021-06-29T14:40:07Z</time>
      </trkpt>
      <trkpt lat="45.84872" lon="5.78306">
        <ele>278.99</ele>
        <time>2021-06-29T14:40:08Z</time>
      </trkpt>
      <trkpt lat="45.84874" lon="5.78308">
        <ele>279</ele>
        <time>2021-06-29T14:40:09Z</time>
      </trkpt>
      <trkpt lat="45.84876" lon="5.78308">
        <ele>279</ele>
        <time>2021-06-29T14:40:10Z</time>
      </trkpt>
      <trkpt lat="45.84878" lon="5.78308">
        <ele>279.01</ele>
        <time>2021-06-29T14:40:11Z</time>
      </trkpt>
      <trkpt lat="45.8488" lon="5.78308">
        <ele>279.01</ele>
        <time>2021-06-29T14:40:12Z</time>
      </trkpt>
      <trkpt lat="45.84914" lon="5.78314">
        <ele>280.29</ele>
        <time>2021-06-29T14:40:27Z</time>
      </trkpt>
      <trkpt lat="45.84915" lon="5.7832">
        <ele>280.91</ele>
        <time>2021-06-29T14:40:35Z</time>
      </trkpt>
    </trkseg>
  </trk>
</gpx>